Time;durP1;ratioP1;P1;durP2;ratioP2;P2;SDS_P1;SDS_P2;PMS_P1;PMS_P2;Temp;Humidity;BMP_temperature;BMP_pressure;BME280_temperature;BME280_humidity;BME280_pressure;Samples;Min_cycle;Max_cycle;Signal;HPM_P1;HPM_P2
2023/04/15 00:00:54;;;;;;;11.95;10.57;;;7.50;99.90;;;;;;4969886;28;20058;-50
2023/04/15 00:03:40;;;;;;;12.05;10.65;;;7.70;99.90;;;;;;4971614;28;20030;-50
2023/04/15 00:06:26;;;;;;;12.55;11.25;;;7.70;99.90;;;;;;4971207;28;20026;-52
2023/04/15 00:09:12;;;;;;;14.75;12.25;;;7.80;99.90;;;;;;4957394;28;20121;-54
2023/04/15 00:11:58;;;;;;;14.23;12.73;;;7.70;99.90;;;;;;4976804;28;20085;-51
2023/04/15 00:14:44;;;;;;;15.38;13.63;;;7.70;99.90;;;;;;4970826;28;20038;-50
2023/04/15 00:17:31;;;;;;;15.60;13.73;;;7.80;99.90;;;;;;4969230;28;20043;-51
2023/04/15 00:20:16;;;;;;;15.75;13.68;;;7.90;99.90;;;;;;4970119;28;20035;-52
2023/04/15 00:23:02;;;;;;;15.80;14.13;;;7.90;99.90;;;;;;4975693;28;20507;-51
2023/04/15 00:25:48;;;;;;;17.67;14.23;;;7.90;99.90;;;;;;4969700;28;20042;-52
2023/04/15 00:28:34;;;;;;;15.55;13.90;;;8.00;99.90;;;;;;4978864;28;20118;-51
2023/04/15 00:31:20;;;;;;;17.70;15.82;;;8.00;99.90;;;;;;4971869;28;20526;-50
2023/04/15 00:34:06;;;;;;;17.23;15.43;;;7.90;99.90;;;;;;4970570;28;20042;-53
2023/04/15 00:36:52;;;;;;;17.33;15.50;;;7.90;99.90;;;;;;4970422;28;20022;-50
2023/04/15 00:39:38;;;;;;;16.60;14.80;;;7.90;99.90;;;;;;4970981;28;20027;-51
2023/04/15 00:42:25;;;;;;;17.65;15.23;;;7.80;99.90;;;;;;4971237;28;20062;-49
2023/04/15 00:45:11;;;;;;;19.00;15.88;;;7.80;99.90;;;;;;4952113;28;20031;-50
2023/04/15 00:47:58;;;;;;;17.50;15.35;;;7.80;99.90;;;;;;4954470;28;20035;-49
2023/04/15 00:50:43;;;;;;;18.33;14.98;;;7.70;99.90;;;;;;4956490;28;20095;-52
2023/04/15 00:53:29;;;;;;;16.50;14.32;;;7.70;99.90;;;;;;4970994;28;20373;-49
2023/04/15 00:56:16;;;;;;;16.35;13.90;;;7.80;99.90;;;;;;4971420;28;20054;-50
2023/04/15 00:59:01;;;;;;;16.90;14.13;;;7.70;99.90;;;;;;4971277;28;20034;-50
2023/04/15 01:01:47;;;;;;;17.58;15.05;;;7.80;99.90;;;;;;4971534;28;20027;-54
2023/04/15 01:04:35;;;;;;;17.52;15.20;;;7.70;99.90;;;;;;4970548;28;20038;-51
2023/04/15 01:07:21;;;;;;;18.17;15.48;;;7.70;99.90;;;;;;4970672;28;20054;-52
2023/04/15 01:10:07;;;;;;;20.55;17.08;;;7.70;99.90;;;;;;4937195;29;20043;-51
2023/04/15 01:12:53;;;;;;;22.45;18.27;;;7.60;99.90;;;;;;4954435;28;20049;-52
2023/04/15 01:15:40;;;;;;;21.73;19.15;;;7.40;99.90;;;;;;4970707;28;20653;-52
2023/04/15 01:18:26;;;;;;;22.85;19.17;;;7.40;99.90;;;;;;4969706;28;20031;-49
2023/04/15 01:21:12;;;;;;;21.05;18.75;;;7.50;99.90;;;;;;4971114;28;20039;-50
2023/04/15 01:23:59;;;;;;;20.30;16.85;;;7.40;99.90;;;;;;4969918;28;20566;-52
2023/04/15 01:26:46;;;;;;;18.65;16.67;;;7.60;99.90;;;;;;4970608;28;20031;-54
2023/04/15 01:29:34;;;;;;;19.10;16.98;;;7.70;99.90;;;;;;4970188;28;20031;-51
2023/04/15 01:32:20;;;;;;;18.23;15.50;;;7.60;99.90;;;;;;4970239;28;20085;-50
2023/04/15 01:35:07;;;;;;;18.15;15.77;;;7.60;99.90;;;;;;4951489;28;20044;-56
2023/04/15 01:37:56;;;;;;;16.67;14.43;;;7.50;99.90;;;;;;4952750;28;20023;-51
2023/04/15 01:40:42;;;;;;;15.02;12.85;;;7.50;99.90;;;;;;4971571;28;20563;-56
2023/04/15 01:43:28;;;;;;;15.32;13.18;;;7.40;99.90;;;;;;4969998;28;20578;-53
2023/04/15 01:46:14;;;;;;;15.45;13.13;;;7.40;99.90;;;;;;4972013;28;20118;-54
2023/04/15 01:49:01;;;;;;;14.93;12.45;;;7.50;99.90;;;;;;4974307;28;20492;-52
2023/04/15 01:51:47;;;;;;;16.40;12.82;;;7.50;99.90;;;;;;4975106;28;20039;-55
2023/04/15 01:54:32;;;;;;;16.10;13.60;;;7.50;99.90;;;;;;4968110;28;20500;-56
2023/04/15 01:57:18;;;;;;;15.45;12.90;;;7.50;99.90;;;;;;4958009;28;20464;-55
2023/04/15 02:00:06;;;;;;;16.10;12.57;;;7.50;99.90;;;;;;4987300;28;20026;-58
2023/04/15 02:02:52;;;;;;;14.93;12.38;;;7.40;99.90;;;;;;4986164;28;20108;-56
2023/04/15 02:05:38;;;;;;;15.52;12.13;;;7.30;99.90;;;;;;4979017;28;20030;-57
2023/04/15 02:08:24;;;;;;;15.63;12.23;;;7.40;99.90;;;;;;4982266;28;20039;-57
2023/04/15 02:11:10;;;;;;;14.68;11.10;;;7.40;99.90;;;;;;4959162;28;20093;-55
2023/04/15 02:13:56;;;;;;;13.77;11.70;;;7.40;99.90;;;;;;4952659;29;20065;-59
2023/04/15 02:16:42;;;;;;;15.05;11.85;;;7.20;99.90;;;;;;4939582;29;20036;-58
2023/04/15 02:19:29;;;;;;;15.32;12.18;;;7.30;99.90;;;;;;4972284;28;20042;-58
2023/04/15 02:22:17;;;;;;;13.48;10.93;;;7.30;99.90;;;;;;4973694;28;20058;-53
2023/04/15 02:25:03;;;;;;;14.07;11.50;;;7.30;99.90;;;;;;4968245;28;20029;-59
2023/04/15 02:27:49;;;;;;;12.82;10.82;;;7.30;99.90;;;;;;4972867;28;20030;-57
2023/04/15 02:30:35;;;;;;;13.55;10.73;;;7.30;99.90;;;;;;4973183;28;20117;-56
2023/04/15 02:33:21;;;;;;;13.93;10.90;;;7.30;99.90;;;;;;4972792;28;20046;-56
2023/04/15 02:36:08;;;;;;;13.50;10.32;;;7.20;99.90;;;;;;4973601;28;20035;-53
2023/04/15 02:38:55;;;;;;;13.57;10.60;;;7.20;99.90;;;;;;4972329;28;20034;-58
2023/04/15 02:41:42;;;;;;;12.38;10.25;;;7.10;99.90;;;;;;4972961;28;20035;-57
2023/04/15 02:44:28;;;;;;;11.40;9.75;;;7.10;99.90;;;;;;4972695;28;20110;-56
2023/04/15 02:47:14;;;;;;;11.10;9.20;;;7.10;99.90;;;;;;4974725;28;20031;-53
2023/04/15 02:50:04;;;;;;;12.90;10.57;;;7.20;99.90;;;;;;4952022;28;20027;-56
2023/04/15 02:52:51;;;;;;;10.25;8.93;;;7.20;99.90;;;;;;4959415;28;20038;-53
2023/04/15 02:55:37;;;;;;;11.48;8.85;;;7.20;99.90;;;;;;4973411;28;20031;-58
2023/04/15 02:58:22;;;;;;;10.48;8.98;;;7.20;99.90;;;;;;4972190;28;20031;-52
2023/04/15 03:01:08;;;;;;;10.65;8.80;;;7.20;99.90;;;;;;4974493;28;20058;-57
2023/04/15 03:03:54;;;;;;;11.13;9.02;;;7.10;99.90;;;;;;4973059;28;20054;-55
2023/04/15 03:06:41;;;;;;;11.75;9.48;;;7.10;99.90;;;;;;4973247;28;20452;-53
2023/04/15 03:09:27;;;;;;;11.65;9.32;;;7.10;99.90;;;;;;4972466;28;20039;-55
2023/04/15 03:12:13;;;;;;;11.50;9.48;;;7.10;99.90;;;;;;4974864;28;20039;-53
2023/04/15 03:15:00;;;;;;;11.40;9.43;;;7.10;99.90;;;;;;4954431;28;20027;-55
2023/04/15 03:17:48;;;;;;;11.68;9.85;;;7.00;99.90;;;;;;4963225;28;20057;-56
2023/04/15 03:20:35;;;;;;;10.00;8.77;;;7.00;99.90;;;;;;4974722;28;20035;-57
2023/04/15 03:23:21;;;;;;;10.95;9.38;;;6.90;99.90;;;;;;4953721;28;20031;-57
2023/04/15 03:26:07;;;;;;;13.15;10.45;;;7.00;99.90;;;;;;4973873;28;20043;-53
2023/04/15 03:28:53;;;;;;;10.25;8.80;;;7.00;99.90;;;;;;4971632;28;20037;-57
2023/04/15 03:31:39;;;;;;;12.13;9.45;;;7.00;99.90;;;;;;4974523;28;20066;-58
2023/04/15 03:34:25;;;;;;;11.73;9.43;;;7.00;99.90;;;;;;4972894;28;20105;-58
2023/04/15 03:37:11;;;;;;;10.98;9.77;;;7.00;99.90;;;;;;4971180;28;20034;-53
2023/04/15 03:39:57;;;;;;;10.00;8.68;;;7.00;99.90;;;;;;4971455;28;20042;-52
2023/04/15 03:42:43;;;;;;;13.18;9.82;;;7.10;99.90;;;;;;4971563;28;20069;-53
2023/04/15 03:45:29;;;;;;;10.13;8.75;;;7.00;99.90;;;;;;4972491;28;20081;-56
2023/04/15 03:48:15;;;;;;;10.15;8.75;;;7.10;99.90;;;;;;4971739;28;20031;-53
2023/04/15 03:51:01;;;;;;;12.68;9.55;;;7.10;99.90;;;;;;4955545;28;20031;-53
2023/04/15 03:53:47;;;;;;;10.77;8.98;;;7.00;99.90;;;;;;4952801;28;20165;-53
2023/04/15 03:56:33;;;;;;;11.00;9.05;;;7.10;99.90;;;;;;4953953;28;20042;-56
2023/04/15 03:59:19;;;;;;;10.50;8.60;;;7.10;99.90;;;;;;4969383;28;20035;-54
2023/04/15 04:02:05;;;;;;;10.57;8.68;;;7.20;99.90;;;;;;4971431;28;20027;-52
2023/04/15 04:04:51;;;;;;;11.63;8.98;;;7.20;99.90;;;;;;4972064;28;20031;-55
2023/04/15 04:07:37;;;;;;;10.85;9.18;;;7.20;99.90;;;;;;4971149;28;20023;-54
2023/04/15 04:10:23;;;;;;;11.27;8.65;;;7.20;99.90;;;;;;4970487;28;20039;-62
2023/04/15 04:13:09;;;;;;;11.55;9.60;;;7.20;99.90;;;;;;4971184;28;20073;-57
2023/04/15 04:15:55;;;;;;;13.00;9.65;;;7.20;99.90;;;;;;4971900;28;20053;-55
2023/04/15 04:18:41;;;;;;;10.35;8.85;;;7.30;99.90;;;;;;4971076;28;20106;-56
2023/04/15 04:21:27;;;;;;;9.25;7.68;;;7.30;99.90;;;;;;4971457;28;20034;-55
2023/04/15 04:24:13;;;;;;;11.23;9.48;;;7.30;99.90;;;;;;4970658;28;20030;-57
2023/04/15 04:26:59;;;;;;;11.88;9.13;;;7.30;99.90;;;;;;4970916;28;20030;-54
2023/04/15 04:29:46;;;;;;;11.00;8.95;;;7.30;99.90;;;;;;4938181;29;20175;-55
2023/04/15 04:32:32;;;;;;;11.85;9.70;;;7.30;99.90;;;;;;4956096;28;20500;-55
2023/04/15 04:35:18;;;;;;;12.00;9.68;;;7.30;99.90;;;;;;4970895;28;20042;-53
2023/04/15 04:38:04;;;;;;;11.68;9.73;;;7.40;99.90;;;;;;4970683;28;20484;-54
2023/04/15 04:40:50;;;;;;;12.73;10.50;;;7.30;99.90;;;;;;4970014;28;20115;-57
2023/04/15 04:43:36;;;;;;;12.13;10.38;;;7.40;99.90;;;;;;4970839;28;20050;-58
2023/04/15 04:46:22;;;;;;;13.15;11.48;;;7.40;99.90;;;;;;4970106;28;20463;-54
2023/04/15 04:49:08;;;;;;;14.95;11.10;;;7.40;99.90;;;;;;4969768;28;20027;-56
2023/04/15 04:51:55;;;;;;;16.67;13.98;;;7.40;99.90;;;;;;4971440;28;20030;-56
2023/04/15 04:54:41;;;;;;;15.52;12.27;;;7.40;99.90;;;;;;4952853;28;20035;-56
2023/04/15 04:57:27;;;;;;;15.10;12.05;;;7.40;99.90;;;;;;4952727;28;20145;-58
2023/04/15 05:00:13;;;;;;;17.20;13.73;;;7.40;99.90;;;;;;4969178;28;20181;-55
2023/04/15 05:02:59;;;;;;;16.95;13.57;;;7.50;99.90;;;;;;4970026;28;20416;-57
2023/04/15 05:05:46;;;;;;;15.10;13.07;;;7.40;99.90;;;;;;4970551;28;20078;-55
2023/04/15 05:08:32;;;;;;;17.10;13.82;;;7.60;99.90;;;;;;4970041;28;20050;-53
2023/04/15 05:11:18;;;;;;;14.82;12.60;;;7.50;99.90;;;;;;4970096;28;20030;-57
2023/04/15 05:14:04;;;;;;;16.23;12.80;;;7.50;99.90;;;;;;4971249;28;20070;-56
2023/04/15 05:16:50;;;;;;;17.20;13.68;;;7.50;99.90;;;;;;4970739;28;20026;-56
2023/04/15 05:19:36;;;;;;;16.20;14.02;;;7.50;99.90;;;;;;4970061;28;20488;-58
2023/04/15 05:22:22;;;;;;;16.13;13.30;;;7.50;99.90;;;;;;4974274;28;20504;-54
2023/04/15 05:25:08;;;;;;;18.00;14.10;;;7.50;99.90;;;;;;4974629;28;20026;-55
2023/04/15 05:27:54;;;;;;;15.00;12.63;;;7.50;99.90;;;;;;4974561;28;20030;-54
2023/04/15 05:30:40;;;;;;;15.30;13.27;;;7.50;99.90;;;;;;4974447;28;20042;-56
2023/04/15 05:33:26;;;;;;;15.60;12.90;;;7.60;99.90;;;;;;4974635;28;20031;-57
2023/04/15 05:36:12;;;;;;;16.75;13.70;;;7.60;99.90;;;;;;4954982;28;20047;-53
2023/04/15 05:38:58;;;;;;;16.13;13.52;;;7.60;99.90;;;;;;4959183;28;20037;-57
2023/04/15 05:41:44;;;;;;;20.33;14.25;;;7.60;99.90;;;;;;4974655;28;20069;-53
2023/04/15 05:44:30;;;;;;;16.63;14.48;;;7.50;99.90;;;;;;4974358;28;20062;-55
2023/04/15 05:47:16;;;;;;;17.50;14.05;;;7.60;99.90;;;;;;4974413;28;20484;-56
2023/04/15 05:50:03;;;;;;;19.40;13.98;;;7.70;99.90;;;;;;4984471;28;20034;-57
2023/04/15 05:52:49;;;;;;;16.30;13.73;;;7.70;99.90;;;;;;4993286;28;20029;-58
2023/04/15 05:55:35;;;;;;;15.75;12.85;;;7.50;99.90;;;;;;4983315;28;20043;-56
2023/04/15 05:58:21;;;;;;;13.32;11.65;;;7.50;99.90;;;;;;4977518;28;20687;-55
2023/04/15 06:01:07;;;;;;;16.17;12.43;;;7.50;99.90;;;;;;4983788;28;20033;-54
2023/04/15 06:03:53;;;;;;;14.57;11.00;;;7.50;99.90;;;;;;4959751;28;20464;-53
2023/04/15 06:06:39;;;;;;;13.52;11.10;;;7.60;99.90;;;;;;4973206;28;20035;-54
2023/04/15 06:09:25;;;;;;;12.32;10.73;;;7.50;99.90;;;;;;4958555;28;20031;-51
2023/04/15 06:12:12;;;;;;;13.20;11.75;;;7.60;99.90;;;;;;4973937;28;20038;-57
2023/04/15 06:14:58;;;;;;;14.18;11.95;;;7.50;99.90;;;;;;4972937;28;20392;-54
2023/04/15 06:17:43;;;;;;;15.20;12.60;;;7.60;99.90;;;;;;4971837;28;20492;-56
2023/04/15 06:20:29;;;;;;;14.02;11.15;;;7.60;99.90;;;;;;4973079;28;20030;-58
2023/04/15 06:23:15;;;;;;;15.65;11.45;;;7.50;99.90;;;;;;4974081;28;20035;-59
2023/04/15 06:26:02;;;;;;;14.27;11.57;;;7.60;99.90;;;;;;4967452;28;20121;-59
2023/04/15 06:28:48;;;;;;;14.20;11.30;;;7.60;99.90;;;;;;4974981;28;20027;-58
2023/04/15 06:31:34;;;;;;;15.23;12.70;;;7.50;99.90;;;;;;4973523;28;20543;-60
2023/04/15 06:34:20;;;;;;;15.98;12.88;;;7.60;99.90;;;;;;4972760;28;20039;-58
2023/04/15 06:37:06;;;;;;;18.00;14.00;;;7.70;99.90;;;;;;4972000;28;20093;-54
2023/04/15 06:39:52;;;;;;;16.80;14.27;;;7.60;99.90;;;;;;4972594;28;20031;-57
2023/04/15 06:42:38;;;;;;;17.23;13.80;;;7.60;99.90;;;;;;4972774;28;20073;-54
2023/04/15 06:45:24;;;;;;;19.15;14.55;;;7.70;99.90;;;;;;4953812;28;20030;-56
2023/04/15 06:48:10;;;;;;;18.90;15.07;;;7.70;99.90;;;;;;4962368;28;20038;-55
2023/04/15 06:50:57;;;;;;;17.55;14.70;;;7.70;99.90;;;;;;4958944;28;20479;-57
2023/04/15 06:53:43;;;;;;;17.67;14.07;;;7.70;99.90;;;;;;4954567;28;20035;-55
2023/04/15 06:56:29;;;;;;;16.02;11.65;;;7.70;99.90;;;;;;4969716;28;20034;-54
2023/04/15 06:59:15;;;;;;;15.82;12.98;;;7.60;99.90;;;;;;4985312;28;20143;-57
2023/04/15 07:02:01;;;;;;;16.00;12.82;;;7.60;99.90;;;;;;4974876;28;20410;-53
2023/04/15 07:04:47;;;;;;;14.70;12.68;;;7.70;99.90;;;;;;4972715;28;20373;-57
2023/04/15 07:07:33;;;;;;;15.88;12.65;;;7.70;99.90;;;;;;4971869;28;20035;-52
2023/04/15 07:10:19;;;;;;;18.02;13.68;;;7.70;99.90;;;;;;4973176;28;20031;-57
2023/04/15 07:13:07;;;;;;;17.02;13.80;;;7.60;99.90;;;;;;4958315;28;20069;-53
2023/04/15 07:15:53;;;;;;;17.73;13.70;;;7.70;99.90;;;;;;4968641;28;20480;-51
2023/04/15 07:18:39;;;;;;;16.10;13.25;;;7.70;99.90;;;;;;4983410;28;20042;-53
2023/04/15 07:21:26;;;;;;;18.60;13.38;;;7.70;99.90;;;;;;4981883;28;20035;-56
2023/04/15 07:24:15;;;;;;;16.40;14.00;;;7.80;99.90;;;;;;4972199;28;20058;-54
2023/04/15 07:27:02;;;;;;;16.55;13.73;;;7.80;99.90;;;;;;4971489;28;20023;-54
2023/04/15 07:29:50;;;;;;;20.58;15.15;;;7.80;99.90;;;;;;4972431;28;20069;-56
2023/04/15 07:32:36;;;;;;;18.83;15.38;;;7.70;99.90;;;;;;4975870;28;20047;-52
2023/04/15 07:35:22;;;;;;;17.67;14.63;;;7.70;99.90;;;;;;4972025;28;20035;-55
2023/04/15 07:38:08;;;;;;;17.70;14.35;;;7.80;99.90;;;;;;4970781;28;19971;-55
2023/04/15 07:40:55;;;;;;;20.83;16.05;;;7.80;99.90;;;;;;4976642;28;20521;-57
2023/04/15 07:43:41;;;;;;;17.73;14.68;;;7.80;99.90;;;;;;4971947;28;20042;-54
2023/04/15 07:46:28;;;;;;;20.42;16.80;;;7.80;99.90;;;;;;4963066;28;20090;-55
2023/04/15 07:49:14;;;;;;;20.40;15.60;;;7.80;99.90;;;;;;4971583;28;20089;-51
2023/04/15 07:52:00;;;;;;;18.20;14.40;;;7.80;99.90;;;;;;4976180;28;20113;-53
2023/04/15 07:54:46;;;;;;;17.30;13.85;;;7.80;99.90;;;;;;4953308;28;20058;-55
2023/04/15 07:57:33;;;;;;;16.98;13.05;;;7.90;99.90;;;;;;4958220;28;20549;-53
2023/04/15 08:00:19;;;;;;;14.88;12.75;;;7.90;99.90;;;;;;4977636;28;20038;-54
2023/04/15 08:03:05;;;;;;;14.27;11.82;;;7.90;99.90;;;;;;4974526;28;20033;-59
2023/04/15 08:05:51;;;;;;;15.25;11.55;;;7.90;99.90;;;;;;4970766;28;20028;-57
2023/04/15 08:08:37;;;;;;;14.38;11.98;;;7.90;99.90;;;;;;4971339;28;20110;-59
2023/04/15 08:11:23;;;;;;;15.68;13.20;;;7.90;99.90;;;;;;4971822;28;20042;-58
2023/04/15 08:14:09;;;;;;;17.42;14.23;;;7.90;99.90;;;;;;4967481;28;20090;-59
2023/04/15 08:16:56;;;;;;;15.02;12.70;;;7.90;99.90;;;;;;4972821;28;20034;-57
2023/04/15 08:19:41;;;;;;;19.45;13.38;;;8.00;99.90;;;;;;4971614;28;20041;-49
2023/04/15 08:22:27;;;;;;;18.75;13.95;;;7.90;99.90;;;;;;4974885;28;20031;-49
2023/04/15 08:25:13;;;;;;;19.38;15.30;;;7.90;99.90;;;;;;4956677;28;20027;-54
2023/04/15 08:28:04;;;;;;;18.67;14.25;;;7.90;99.90;;;;;;4981432;28;20109;-57
2023/04/15 08:30:51;;;;;;;17.90;14.23;;;8.00;99.90;;;;;;4980461;28;20023;-51
2023/04/15 08:33:37;;;;;;;20.15;15.57;;;8.00;99.90;;;;;;4985390;28;20034;-50
2023/04/15 08:36:23;;;;;;;19.63;14.88;;;8.00;99.90;;;;;;4976906;28;20035;-55
2023/04/15 08:39:10;;;;;;;19.40;15.20;;;8.10;99.90;;;;;;4964872;28;20081;-56
2023/04/15 08:42:26;;;;;;;20.83;16.38;;;8.10;99.90;;;;;;4960599;28;20026;-53
2023/04/15 08:45:12;;;;;;;20.30;16.30;;;8.10;99.90;;;;;;4977781;28;20026;-53
2023/04/15 08:48:00;;;;;;;20.08;16.13;;;8.20;99.90;;;;;;4973469;28;20041;-53
2023/04/15 08:50:47;;;;;;;22.38;17.17;;;8.20;99.90;;;;;;4978177;28;20022;-55
2023/04/15 08:53:34;;;;;;;23.00;18.73;;;8.10;99.90;;;;;;4979648;28;20030;-52
2023/04/15 08:56:25;;;;;;;26.13;20.15;;;8.20;99.90;;;;;;4978253;28;20037;-56
2023/04/15 08:59:12;;;;;;;26.27;19.30;;;8.20;99.90;;;;;;4993135;28;20026;-57
2023/04/15 09:01:58;;;;;;;29.52;21.20;;;8.30;99.90;;;;;;4993675;28;20041;-55
2023/04/15 09:04:44;;;;;;;29.08;22.58;;;8.30;99.90;;;;;;4994679;28;20510;-56
2023/04/15 09:07:33;;;;;;;31.88;22.25;;;8.20;99.90;;;;;;4976378;28;20034;-54
2023/04/15 09:10:19;;;;;;;31.35;22.30;;;8.20;99.90;;;;;;4963600;28;20039;-54
2023/04/15 09:13:05;;;;;;;31.45;23.13;;;8.30;99.90;;;;;;4973238;28;20041;-54
2023/04/15 09:15:52;;;;;;;36.03;25.92;;;8.30;99.90;;;;;;4956350;28;20027;-53
2023/04/15 09:18:38;;;;;;;33.60;23.45;;;8.30;99.90;;;;;;4975643;28;20121;-52
2023/04/15 09:21:24;;;;;;;34.60;24.58;;;8.40;99.90;;;;;;4974719;28;20098;-52
2023/04/15 09:24:10;;;;;;;35.45;25.02;;;8.30;99.90;;;;;;4948461;28;20035;-49
2023/04/15 09:26:57;;;;;;;37.58;26.08;;;8.30;99.90;;;;;;4972269;28;20043;-55
2023/04/15 09:29:43;;;;;;;35.85;24.70;;;8.40;99.90;;;;;;4974415;28;20031;-53
2023/04/15 09:32:29;;;;;;;37.47;24.80;;;8.40;99.90;;;;;;4973635;28;20102;-54
2023/04/15 09:35:15;;;;;;;36.20;25.67;;;8.50;99.90;;;;;;4956171;28;20046;-52
2023/04/15 09:38:11;;;;;;;38.88;26.70;;;8.40;99.90;;;;;;4963237;28;20448;-51
2023/04/15 09:40:58;;;;;;;43.42;25.83;;;8.50;99.90;;;;;;4956456;28;20100;-49
2023/04/15 09:43:44;;;;;;;41.38;27.67;;;8.50;99.90;;;;;;4971755;28;20023;-51
2023/04/15 09:46:44;;;;;;;43.05;27.08;;;8.50;99.90;;;;;;4954010;28;20098;-50
2023/04/15 09:49:30;;;;;;;48.13;28.67;;;8.60;99.90;;;;;;4947653;28;20023;-48
2023/04/15 09:52:16;;;;;;;48.40;28.42;;;8.60;99.90;;;;;;4964739;28;20031;-54
2023/04/15 09:55:03;;;;;;;46.22;29.70;;;8.60;99.90;;;;;;4974155;28;20035;-52
2023/04/15 09:57:49;;;;;;;47.80;30.42;;;8.70;99.90;;;;;;4953863;28;20031;-54
2023/04/15 10:00:36;;;;;;;47.47;30.30;;;8.70;99.90;;;;;;4970584;28;20022;-54
2023/04/15 10:03:27;;;;;;;52.60;31.00;;;8.70;99.90;;;;;;4972216;28;20031;-55
2023/04/15 10:06:13;;;;;;;54.55;33.03;;;8.80;99.90;;;;;;4968336;28;20499;-54
2023/04/15 10:09:00;;;;;;;60.22;35.35;;;8.80;99.90;;;;;;4971477;28;20066;-54
2023/04/15 10:11:48;;;;;;;62.70;36.83;;;8.70;99.90;;;;;;4971660;28;20488;-51
2023/04/15 10:14:37;;;;;;;59.47;37.00;;;8.80;99.90;;;;;;4972547;28;20031;-51
2023/04/15 10:17:26;;;;;;;58.72;34.75;;;8.80;99.90;;;;;;4971417;28;20039;-53
2023/04/15 10:20:16;;;;;;;115.15;40.30;;;8.80;99.90;;;;;;4955953;28;20439;-54
2023/04/15 10:23:03;;;;;;;56.47;34.88;;;8.90;99.90;;;;;;4969465;28;20027;-55
2023/04/15 10:25:52;;;;;;;56.08;37.03;;;8.90;99.90;;;;;;4962785;28;20030;-57
2023/04/15 10:28:38;;;;;;;70.53;37.40;;;8.90;99.90;;;;;;4970401;28;20085;-54
2023/04/15 10:31:24;;;;;;;59.08;37.15;;;9.00;99.90;;;;;;4972022;28;20030;-54
2023/04/15 10:34:11;;;;;;;64.82;39.20;;;9.00;99.90;;;;;;4973148;28;20027;-56
2023/04/15 10:37:03;;;;;;;65.53;39.85;;;9.00;99.90;;;;;;4958303;28;20062;-57
2023/04/15 10:39:49;;;;;;;67.22;39.80;;;9.00;99.90;;;;;;4973391;28;20106;-54
2023/04/15 10:42:35;;;;;;;72.53;42.83;;;9.10;99.90;;;;;;4973096;28;20065;-57
2023/04/15 10:45:24;;;;;;;67.10;40.95;;;9.10;99.90;;;;;;4959359;28;20484;-57
2023/04/15 10:48:15;;;;;;;71.10;44.53;;;9.10;99.90;;;;;;4973223;28;20091;-57
2023/04/15 10:51:02;;;;;;;73.75;44.00;;;9.10;99.90;;;;;;4973044;28;20091;-56
2023/04/15 10:53:48;;;;;;;69.15;44.45;;;9.20;99.90;;;;;;4959110;28;20061;-56
2023/04/15 10:56:34;;;;;;;74.40;45.03;;;9.20;99.90;;;;;;4973211;28;20030;-57
2023/04/15 10:59:21;;;;;;;72.32;44.65;;;9.20;99.90;;;;;;4973234;28;20030;-58
2023/04/15 11:02:07;;;;;;;77.10;46.78;;;9.30;99.90;;;;;;4972530;28;20110;-55
2023/04/15 11:04:56;;;;;;;73.38;45.83;;;9.30;99.90;;;;;;4973253;28;20081;-52
2023/04/15 11:07:54;;;;;;;74.68;46.10;;;9.30;99.90;;;;;;4945555;28;20090;-53
2023/04/15 11:10:40;;;;;;;69.13;44.60;;;9.30;99.90;;;;;;4971465;28;20109;-53
2023/04/15 11:13:28;;;;;;;82.38;51.17;;;9.30;99.90;;;;;;4953390;28;20031;-52
2023/04/15 11:16:14;;;;;;;74.20;47.53;;;9.40;99.90;;;;;;4953861;28;20031;-57
2023/04/15 11:19:00;;;;;;;74.93;47.05;;;9.50;99.90;;;;;;4971547;28;20061;-55
2023/04/15 11:21:46;;;;;;;67.22;46.42;;;9.60;99.90;;;;;;4972023;28;20416;-60
2023/04/15 11:24:32;;;;;;;70.38;46.75;;;9.60;99.90;;;;;;4972265;28;20035;-56
2023/04/15 11:27:26;;;;;;;68.18;45.83;;;9.60;99.90;;;;;;4972121;28;20038;-56
2023/04/15 11:30:23;;;;;;;68.40;45.75;;;9.60;99.90;;;;;;4972220;28;20034;-58
2023/04/15 11:33:11;;;;;;;67.88;46.08;;;9.60;99.90;;;;;;4971315;28;20114;-60
2023/04/15 11:35:58;;;;;;;72.53;48.08;;;9.70;99.90;;;;;;4971966;28;20039;-57
2023/04/15 11:38:46;;;;;;;63.70;44.78;;;9.70;99.90;;;;;;4972911;28;20038;-55
2023/04/15 11:41:32;;;;;;;68.85;47.75;;;9.70;99.90;;;;;;4972607;28;20076;-58
2023/04/15 11:44:18;;;;;;;62.28;44.83;;;9.70;99.90;;;;;;4971942;28;20491;-59
2023/04/15 11:47:22;;;;;;;67.70;44.33;;;9.70;99.90;;;;;;4972189;28;20045;-59
2023/04/15 11:50:15;;;;;;;60.95;42.95;;;9.80;99.90;;;;;;4972998;28;20500;-54
2023/04/15 11:53:04;;;;;;;61.95;44.17;;;9.80;99.90;;;;;;4972048;28;20491;-56
2023/04/15 11:55:57;;;;;;;59.15;43.85;;;9.80;99.90;;;;;;4972454;28;20019;-59
2023/04/15 11:58:46;;;;;;;58.58;42.22;;;9.90;99.90;;;;;;4977232;28;20567;-53
2023/04/15 12:01:34;;;;;;;54.08;41.78;;;9.90;99.90;;;;;;4956753;28;20038;-58
2023/04/15 12:04:23;;;;;;;56.10;40.53;;;10.00;99.90;;;;;;4977642;28;20078;-57
2023/04/15 12:07:10;;;;;;;50.80;39.28;;;9.90;99.90;;;;;;4975090;28;20066;-58
2023/04/15 12:09:57;;;;;;;51.92;37.92;;;9.90;99.90;;;;;;4975850;28;20039;-58
2023/04/15 12:12:48;;;;;;;49.47;39.53;;;9.90;99.90;;;;;;4959215;28;20389;-54
2023/04/15 12:15:38;;;;;;;47.20;38.42;;;10.00;99.90;;;;;;4963836;28;20134;-57
2023/04/15 12:18:24;;;;;;;48.13;37.60;;;10.00;99.90;;;;;;4974453;28;20046;-56
2023/04/15 12:21:11;;;;;;;39.92;33.83;;;10.00;99.90;;;;;;4971679;28;20030;-57
2023/04/15 12:24:00;;;;;;;39.13;32.90;;;10.10;99.90;;;;;;4972210;28;20081;-55
2023/04/15 12:26:56;;;;;;;38.20;32.67;;;10.20;99.90;;;;;;4970587;28;20037;-55
2023/04/15 12:29:43;;;;;;;41.08;33.70;;;10.20;99.90;;;;;;4956457;28;20039;-54
2023/04/15 12:32:29;;;;;;;37.17;31.77;;;10.20;99.90;;;;;;4952980;28;20031;-56
2023/04/15 12:35:15;;;;;;;35.17;31.00;;;10.30;99.90;;;;;;4953173;28;20090;-58
2023/04/15 12:38:00;;;;;;;36.17;29.88;;;10.30;99.90;;;;;;4970698;28;20049;-57
2023/04/15 12:40:46;;;;;;;33.28;28.70;;;10.30;99.90;;;;;;4971120;28;20023;-58
2023/04/15 12:43:32;;;;;;;32.88;28.13;;;10.30;99.90;;;;;;4971818;28;20038;-56
2023/04/15 12:46:19;;;;;;;30.38;26.85;;;10.30;99.90;;;;;;4969971;28;20041;-56
2023/04/15 12:49:05;;;;;;;30.67;26.10;;;10.40;99.90;;;;;;4971654;28;20035;-59
2023/04/15 12:51:52;;;;;;;27.90;25.00;;;10.20;99.90;;;;;;4971211;28;20113;-56
2023/04/15 12:54:41;;;;;;;30.42;25.73;;;10.20;99.90;;;;;;4971670;28;20058;-55
2023/04/15 12:57:27;;;;;;;30.23;26.55;;;10.20;99.90;;;;;;4950848;28;20126;-55
2023/04/15 13:00:13;;;;;;;28.83;25.80;;;10.30;99.90;;;;;;4965453;28;20058;-56
2023/04/15 13:02:59;;;;;;;28.08;25.17;;;10.30;99.90;;;;;;4973446;28;20066;-55
2023/04/15 13:05:45;;;;;;;26.83;23.70;;;10.30;99.90;;;;;;4975131;28;20035;-51
2023/04/15 13:08:31;;;;;;;26.35;21.98;;;10.30;99.90;;;;;;4970577;28;20114;-55
2023/04/15 13:11:18;;;;;;;24.95;22.17;;;10.30;99.90;;;;;;4966881;28;20040;-54
2023/04/15 13:14:06;;;;;;;25.80;22.70;;;10.30;99.90;;;;;;4969846;28;20035;-57
2023/04/15 13:16:52;;;;;;;25.88;22.05;;;10.30;99.90;;;;;;4968488;28;20032;-58
2023/04/15 13:19:38;;;;;;;23.98;21.55;;;10.40;99.90;;;;;;4968102;28;20043;-61
2023/04/15 13:22:24;;;;;;;23.45;20.95;;;10.40;99.90;;;;;;4978879;28;20031;-60
2023/04/15 13:25:10;;;;;;;26.40;23.45;;;10.50;99.90;;;;;;4942048;29;20024;-58
2023/04/15 13:27:56;;;;;;;26.25;23.38;;;10.50;99.90;;;;;;4951094;29;20048;-57
2023/04/15 13:30:43;;;;;;;26.08;20.75;;;10.50;99.90;;;;;;4951785;28;20046;-55
2023/04/15 13:33:29;;;;;;;25.63;23.02;;;10.60;99.90;;;;;;4953432;28;20088;-54
2023/04/15 13:36:15;;;;;;;23.45;20.95;;;10.70;99.90;;;;;;4958929;28;20729;-56
2023/04/15 13:39:01;;;;;;;22.70;20.02;;;10.60;99.90;;;;;;4969412;28;20114;-56
2023/04/15 13:41:47;;;;;;;22.80;20.50;;;10.60;99.90;;;;;;4972445;28;20031;-53
2023/04/15 13:44:33;;;;;;;22.05;19.70;;;10.60;99.90;;;;;;4973924;28;20166;-54
2023/04/15 13:47:20;;;;;;;21.45;19.20;;;10.60;99.90;;;;;;4973360;28;20031;-59
2023/04/15 13:50:06;;;;;;;20.63;18.52;;;10.60;99.90;;;;;;4978027;28;20023;-57
2023/04/15 13:52:53;;;;;;;20.75;17.85;;;10.60;99.90;;;;;;4976774;28;20038;-59
2023/04/15 13:55:41;;;;;;;18.83;17.00;;;10.50;99.90;;;;;;4976669;28;20042;-58
2023/04/15 13:58:27;;;;;;;18.60;16.70;;;10.50;99.90;;;;;;4955951;28;20034;-56
2023/04/15 14:01:16;;;;;;;17.65;15.85;;;10.50;99.90;;;;;;4962021;28;20031;-54
2023/04/15 14:04:11;;;;;;;19.67;17.55;;;10.50;99.90;;;;;;4975596;28;20019;-51
2023/04/15 14:06:58;;;;;;;18.85;16.88;;;10.50;99.90;;;;;;4974076;28;20118;-55
2023/04/15 14:09:47;;;;;;;20.25;17.42;;;10.50;99.90;;;;;;4975008;28;20041;-57
2023/04/15 14:12:33;;;;;;;18.85;16.85;;;10.60;99.90;;;;;;4966092;28;20038;-54
2023/04/15 14:15:19;;;;;;;17.88;16.08;;;10.60;99.90;;;;;;4974622;28;20412;-56